Time;durP1;ratioP1;P1;durP2;ratioP2;P2;SDS_P1;SDS_P2;PMS_P1;PMS_P2;Temp;Humidity;BMP_temperature;BMP_pressure;BME280_temperature;BME280_humidity;BME280_pressure;Samples;Min_cycle;Max_cycle;Signal;HPM_P1;HPM_P2
2022/04/24 00:01:13;;;;;;;28.83;19.77;;;8.00;99.90;;;;;;5038713;28;20172;-78
2022/04/24 00:03:39;;;;;;;30.40;20.03;;;8.00;99.90;;;;;;5038099;28;20207;-78
2022/04/24 00:06:04;;;;;;;29.03;20.23;;;8.00;99.90;;;;;;5037120;28;20213;-78
2022/04/24 00:08:30;;;;;;;28.87;19.17;;;7.90;99.90;;;;;;5034823;28;20658;-78
2022/04/24 00:10:56;;;;;;;30.33;20.17;;;7.90;99.90;;;;;;5035940;28;20175;-78
2022/04/24 00:13:23;;;;;;;28.97;20.37;;;7.90;99.90;;;;;;5036688;28;20671;-78
2022/04/24 00:15:50;;;;;;;32.27;22.03;;;7.90;99.90;;;;;;5035876;28;20654;-78
2022/04/24 00:18:16;;;;;;;28.53;20.03;;;7.90;99.90;;;;;;5037453;28;20204;-80
2022/04/24 00:20:43;;;;;;;33.27;21.63;;;7.90;99.90;;;;;;5037185;28;20179;-78
2022/04/24 00:23:08;;;;;;;29.30;21.57;;;7.90;99.90;;;;;;5035919;28;20204;-78
2022/04/24 00:25:34;;;;;;;29.33;19.20;;;7.90;99.90;;;;;;5036282;28;20743;-78
2022/04/24 00:28:02;;;;;;;26.77;19.77;;;7.90;99.90;;;;;;5036292;28;20183;-78
2022/04/24 00:30:28;;;;;;;29.93;20.37;;;7.90;99.90;;;;;;5037296;28;20172;-78
2022/04/24 00:32:54;;;;;;;31.87;19.90;;;7.90;99.90;;;;;;5036521;28;20198;-78
2022/04/24 00:35:20;;;;;;;33.97;21.13;;;7.90;99.90;;;;;;5036448;28;20547;-78
2022/04/24 00:37:45;;;;;;;30.30;20.97;;;7.90;99.90;;;;;;5037514;28;20330;-78
2022/04/24 00:40:11;;;;;;;32.17;20.33;;;7.90;99.90;;;;;;5036346;28;20233;-78
2022/04/24 00:42:37;;;;;;;27.50;20.03;;;7.90;99.90;;;;;;5036867;28;20207;-77
2022/04/24 00:45:03;;;;;;;28.87;20.13;;;7.80;99.90;;;;;;5045301;28;20205;-77
2022/04/24 00:47:29;;;;;;;30.93;20.67;;;7.80;99.90;;;;;;5046030;28;20190;-77
2022/04/24 00:49:55;;;;;;;32.37;22.43;;;7.80;99.90;;;;;;5044767;28;20176;-78
2022/04/24 00:52:22;;;;;;;29.40;21.17;;;7.80;99.90;;;;;;5035672;28;20289;-78
2022/04/24 00:54:47;;;;;;;32.07;21.60;;;7.80;99.90;;;;;;5034382;28;20658;-78
2022/04/24 00:57:13;;;;;;;33.90;20.43;;;7.80;99.90;;;;;;5035505;28;20174;-78
2022/04/24 00:59:39;;;;;;;30.17;19.93;;;7.80;99.90;;;;;;5034120;28;20649;-78
2022/04/24 01:02:07;;;;;;;31.17;19.13;;;7.80;99.90;;;;;;5035285;28;20205;-78
2022/04/24 01:04:37;;;;;;;31.80;20.57;;;7.80;99.90;;;;;;5034990;28;20586;-78
2022/04/24 01:07:04;;;;;;;35.13;22.20;;;7.80;99.90;;;;;;5033840;28;20178;-78
2022/04/24 01:09:32;;;;;;;32.03;20.50;;;7.90;99.90;;;;;;5034711;28;20170;-78
2022/04/24 01:11:58;;;;;;;28.07;18.93;;;7.80;99.90;;;;;;5033465;28;20566;-78
2022/04/24 01:14:26;;;;;;;35.37;22.23;;;7.80;99.90;;;;;;5035432;28;20671;-78
2022/04/24 01:16:53;;;;;;;30.57;20.97;;;7.80;99.90;;;;;;5035464;28;20640;-78
2022/04/24 01:19:18;;;;;;;30.73;21.33;;;7.90;99.90;;;;;;5035245;28;20194;-78
2022/04/24 01:21:46;;;;;;;28.80;20.07;;;7.90;99.90;;;;;;5035455;28;20684;-78
2022/04/24 01:24:13;;;;;;;27.93;20.67;;;7.90;99.90;;;;;;5033867;28;20649;-78
2022/04/24 01:26:39;;;;;;;30.10;21.17;;;7.90;99.90;;;;;;5035107;28;20206;-78
2022/04/24 01:29:05;;;;;;;30.87;21.07;;;7.80;99.90;;;;;;5033873;28;20184;-78
2022/04/24 01:31:32;;;;;;;32.00;22.23;;;7.80;99.90;;;;;;5033819;28;20178;-78
2022/04/24 01:33:58;;;;;;;31.90;20.70;;;7.80;99.90;;;;;;5034884;28;20541;-78
2022/04/24 01:36:24;;;;;;;30.50;20.43;;;7.80;99.90;;;;;;5035048;28;20179;-78
2022/04/24 01:38:49;;;;;;;31.20;21.17;;;7.80;99.90;;;;;;5034743;28;20248;-78
2022/04/24 01:41:15;;;;;;;30.30;21.17;;;7.80;99.90;;;;;;5034850;28;20174;-78
2022/04/24 01:43:42;;;;;;;30.83;22.03;;;7.80;99.90;;;;;;5033334;28;20209;-78
2022/04/24 01:46:08;;;;;;;33.87;21.73;;;7.80;99.90;;;;;;5034812;28;20240;-78
2022/04/24 01:48:34;;;;;;;30.73;21.73;;;7.90;99.90;;;;;;5035236;28;20182;-78
2022/04/24 01:51:04;;;;;;;32.63;19.83;;;7.90;99.90;;;;;;5034597;28;20246;-78
2022/04/24 01:53:31;;;;;;;35.83;21.37;;;7.90;99.90;;;;;;5035152;28;20195;-78
2022/04/24 01:55:58;;;;;;;32.87;21.33;;;7.80;99.90;;;;;;5033947;28;20221;-78
2022/04/24 01:58:24;;;;;;;35.73;23.73;;;7.80;99.90;;;;;;5036122;28;20184;-78
2022/04/24 02:00:51;;;;;;;36.77;21.23;;;7.80;99.90;;;;;;5033910;28;20652;-78
2022/04/24 02:03:17;;;;;;;36.23;23.13;;;7.80;99.90;;;;;;5034979;28;20195;-78
2022/04/24 02:05:43;;;;;;;33.73;22.13;;;7.70;99.90;;;;;;5035215;28;20205;-78
2022/04/24 02:08:08;;;;;;;33.13;22.37;;;7.70;99.90;;;;;;5033719;28;20266;-78
2022/04/24 02:10:34;;;;;;;34.17;20.40;;;7.70;99.90;;;;;;5033354;28;20178;-78
2022/04/24 02:13:00;;;;;;;33.53;21.40;;;7.70;99.90;;;;;;5032826;28;20562;-78
2022/04/24 02:15:25;;;;;;;33.80;21.93;;;7.70;99.90;;;;;;5034160;28;20517;-78
2022/04/24 02:17:51;;;;;;;31.20;21.83;;;7.70;99.90;;;;;;5036221;28;20170;-78
2022/04/24 02:20:18;;;;;;;35.20;22.90;;;7.70;99.90;;;;;;5034044;28;20205;-78
2022/04/24 02:22:43;;;;;;;32.67;21.80;;;7.70;99.90;;;;;;5039064;28;20204;-78
2022/04/24 02:25:09;;;;;;;32.63;21.63;;;7.70;99.90;;;;;;5047720;28;20254;-77
2022/04/24 02:27:35;;;;;;;33.00;22.50;;;7.70;99.90;;;;;;5047221;28;20190;-77
2022/04/24 02:30:00;;;;;;;34.23;21.97;;;7.70;99.90;;;;;;5039648;28;20175;-79
2022/04/24 02:32:26;;;;;;;31.73;21.37;;;7.60;99.90;;;;;;5039020;28;20191;-80
2022/04/24 02:34:52;;;;;;;30.30;21.23;;;7.60;99.90;;;;;;5038624;28;20224;-78
2022/04/24 02:37:19;;;;;;;34.00;23.67;;;7.60;99.90;;;;;;5038212;28;20189;-78
2022/04/24 02:39:44;;;;;;;35.37;22.83;;;7.60;99.90;;;;;;5039354;28;20239;-77
2022/04/24 02:42:10;;;;;;;32.93;21.53;;;7.60;99.90;;;;;;5036846;28;20230;-78
2022/04/24 02:44:36;;;;;;;32.00;19.43;;;7.50;99.90;;;;;;5036432;28;20191;-78
2022/04/24 02:47:02;;;;;;;30.90;21.03;;;7.60;99.90;;;;;;5036605;28;20178;-78
2022/04/24 02:49:27;;;;;;;31.87;21.83;;;7.60;99.90;;;;;;5037747;28;20179;-78
2022/04/24 02:51:53;;;;;;;33.87;21.83;;;7.60;99.90;;;;;;5036501;28;20249;-78
2022/04/24 02:54:19;;;;;;;32.67;21.73;;;7.70;99.90;;;;;;5037763;28;20192;-78
2022/04/24 02:56:44;;;;;;;29.70;20.93;;;7.70;99.90;;;;;;5037713;28;20581;-78
2022/04/24 02:59:11;;;;;;;28.13;19.93;;;7.70;99.90;;;;;;5036435;28;20239;-78
2022/04/24 03:01:39;;;;;;;30.17;19.93;;;7.70;99.90;;;;;;5036325;28;20269;-78
2022/04/24 03:04:05;;;;;;;28.50;17.77;;;7.70;99.90;;;;;;5037380;28;20264;-78
2022/04/24 03:06:30;;;;;;;18.23;13.17;;;7.80;99.90;;;;;;5041993;28;20206;-78
2022/04/24 03:08:56;;;;;;;17.50;12.93;;;7.90;99.90;;;;;;5037340;28;20227;-78
2022/04/24 03:11:22;;;;;;;13.93;11.37;;;8.00;99.90;;;;;;5036185;28;20219;-78
2022/04/24 03:13:47;;;;;;;13.50;10.03;;;8.10;99.90;;;;;;5035990;28;20317;-78
2022/04/24 03:16:13;;;;;;;14.93;11.43;;;8.30;99.90;;;;;;5036259;28;20182;-78
2022/04/24 03:18:39;;;;;;;12.33;10.17;;;8.40;99.90;;;;;;5037142;28;20647;-78
2022/04/24 03:21:04;;;;;;;14.40;9.87;;;8.40;99.90;;;;;;5037712;28;20183;-78
2022/04/24 03:23:30;;;;;;;16.23;10.63;;;8.40;99.90;;;;;;5036906;28;20566;-77
2022/04/24 03:25:56;;;;;;;15.13;11.70;;;8.40;99.90;;;;;;5037037;28;20287;-78
2022/04/24 03:28:22;;;;;;;19.20;13.67;;;8.30;99.90;;;;;;5036419;28;20655;-77
2022/04/24 03:30:47;;;;;;;16.57;12.60;;;8.30;99.90;;;;;;5036670;28;20182;-78
2022/04/24 03:33:13;;;;;;;18.07;12.03;;;8.30;99.90;;;;;;5037333;28;20190;-78
2022/04/24 03:35:39;;;;;;;20.03;13.93;;;8.30;99.90;;;;;;5035473;28;20192;-77
2022/04/24 03:38:05;;;;;;;24.03;15.60;;;8.20;99.90;;;;;;5036436;28;20228;-77
2022/04/24 03:40:30;;;;;;;18.80;13.00;;;8.20;99.90;;;;;;5035112;28;20279;-77
2022/04/24 03:42:56;;;;;;;19.80;14.27;;;8.20;99.90;;;;;;5034537;28;20201;-77
2022/04/24 03:45:22;;;;;;;19.63;13.57;;;8.10;99.90;;;;;;5036469;28;20208;-77
2022/04/24 03:47:48;;;;;;;27.70;18.27;;;8.20;99.90;;;;;;5036197;28;20178;-77
2022/04/24 03:50:14;;;;;;;27.50;18.33;;;8.20;99.90;;;;;;5034855;28;20180;-77
2022/04/24 03:52:40;;;;;;;20.00;14.47;;;8.20;99.90;;;;;;5036043;28;20190;-77
2022/04/24 03:55:07;;;;;;;21.37;15.23;;;8.20;99.90;;;;;;5036321;28;20182;-77
2022/04/24 03:57:33;;;;;;;17.83;13.00;;;8.10;99.90;;;;;;5037222;28;20257;-77
2022/04/24 03:59:59;;;;;;;16.30;11.60;;;8.10;99.90;;;;;;5037276;28;20185;-77
2022/04/24 04:02:25;;;;;;;16.83;11.03;;;8.30;99.90;;;;;;5034936;28;20208;-77
2022/04/24 04:04:50;;;;;;;17.43;12.73;;;8.30;99.90;;;;;;5036254;28;20206;-77
2022/04/24 04:07:16;;;;;;;17.83;12.93;;;8.50;99.90;;;;;;5035914;28;20181;-77
2022/04/24 04:09:42;;;;;;;21.47;14.27;;;8.50;99.90;;;;;;5035900;28;20385;-77
2022/04/24 04:12:08;;;;;;;22.47;15.20;;;8.50;99.90;;;;;;5035644;28;20615;-77
2022/04/24 04:14:34;;;;;;;21.93;15.27;;;8.40;99.90;;;;;;5034286;28;20273;-77
2022/04/24 04:17:00;;;;;;;20.57;14.20;;;8.40;99.90;;;;;;5034600;28;20214;-77
2022/04/24 04:19:25;;;;;;;20.23;14.07;;;8.40;99.90;;;;;;5035850;28;20206;-77
2022/04/24 04:21:51;;;;;;;21.47;15.87;;;8.30;99.90;;;;;;5034360;28;20690;-77
2022/04/24 04:24:17;;;;;;;21.17;14.10;;;8.30;99.90;;;;;;5034136;28;20181;-77
2022/04/24 04:26:44;;;;;;;18.20;12.87;;;8.30;99.90;;;;;;5035509;28;20292;-77
2022/04/24 04:29:10;;;;;;;18.70;13.60;;;8.20;99.90;;;;;;5034355;28;20263;-77
2022/04/24 04:31:35;;;;;;;18.23;13.07;;;8.20;99.90;;;;;;5035663;28;20208;-78
2022/04/24 04:34:01;;;;;;;18.13;11.17;;;8.20;99.90;;;;;;5034148;28;20276;-79
2022/04/24 04:36:26;;;;;;;17.10;11.50;;;8.20;99.90;;;;;;5035545;28;20209;-78
2022/04/24 04:38:52;;;;;;;10.97;8.33;;;8.20;99.90;;;;;;5036583;28;20563;-78
2022/04/24 04:41:18;;;;;;;10.67;8.20;;;8.20;99.90;;;;;;5035876;28;20206;-77
2022/04/24 04:43:43;;;;;;;9.90;7.87;;;8.10;99.90;;;;;;5034960;28;20191;-77
2022/04/24 04:46:09;;;;;;;8.43;6.60;;;8.00;99.90;;;;;;5035209;28;20197;-77
2022/04/24 04:48:34;;;;;;;9.37;5.97;;;8.00;99.90;;;;;;5033971;28;20181;-77
2022/04/24 04:51:00;;;;;;;7.67;5.67;;;7.90;99.90;;;;;;5036194;28;20250;-78
2022/04/24 04:53:26;;;;;;;6.20;5.03;;;7.70;99.90;;;;;;5034723;28;20291;-77
2022/04/24 04:55:51;;;;;;;6.47;5.07;;;7.70;99.90;;;;;;5035696;28;20231;-79
2022/04/24 04:58:17;;;;;;;4.33;3.80;;;7.60;99.90;;;;;;5036510;28;20180;-78
2022/04/24 05:00:43;;;;;;;4.40;3.47;;;7.60;99.90;;;;;;5036150;28;20190;-78
2022/04/24 05:03:09;;;;;;;5.43;3.50;;;7.50;99.90;;;;;;5034820;28;20209;-78
2022/04/24 05:05:35;;;;;;;5.23;3.27;;;7.50;99.90;;;;;;5033809;28;20297;-78
2022/04/24 05:08:01;;;;;;;5.27;2.93;;;7.50;99.90;;;;;;5034978;28;20180;-77
2022/04/24 05:10:26;;;;;;;2.70;2.50;;;7.50;99.90;;;;;;5035109;28;20180;-77
2022/04/24 05:12:52;;;;;;;2.30;2.10;;;7.40;99.90;;;;;;5034809;28;20202;-78
2022/04/24 05:15:19;;;;;;;2.37;2.17;;;7.40;99.90;;;;;;5034015;28;20301;-77
2022/04/24 05:17:45;;;;;;;3.00;2.30;;;7.40;99.90;;;;;;5034717;28;20582;-78
2022/04/24 05:20:12;;;;;;;3.00;1.87;;;7.40;99.90;;;;;;5034742;28;20233;-78
2022/04/24 05:22:41;;;;;;;2.00;1.80;;;7.40;99.90;;;;;;5033108;28;20202;-78
2022/04/24 05:25:09;;;;;;;2.13;1.83;;;7.30;99.90;;;;;;5034629;28;20294;-78
2022/04/24 05:27:38;;;;;;;1.43;1.33;;;7.30;99.90;;;;;;5034777;28;20712;-78
2022/04/24 05:30:07;;;;;;;1.37;1.27;;;7.30;99.90;;;;;;5034672;28;20178;-78
2022/04/24 05:32:47;;;;;;;1.23;1.13;;;7.30;99.90;;;;;;5034744;28;20779;-78
2022/04/24 05:35:12;;;;;;;1.60;1.50;;;7.40;99.90;;;;;;5034081;28;20183;-79
2022/04/24 05:37:40;;;;;;;1.30;1.20;;;7.40;99.90;;;;;;5033840;28;20284;-77
2022/04/24 05:40:06;;;;;;;1.07;0.97;;;7.40;99.90;;;;;;5035321;28;20178;-79
2022/04/24 05:42:33;;;;;;;0.90;0.80;;;7.50;99.90;;;;;;5036414;28;20200;-79
2022/04/24 05:45:04;;;;;;;1.43;1.13;;;7.60;99.90;;;;;;5034938;28;20267;-79
2022/04/24 05:47:31;;;;;;;0.80;0.73;;;7.60;99.90;;;;;;5039872;28;20152;-78
2022/04/24 05:49:56;;;;;;;0.93;0.87;;;7.70;99.90;;;;;;5045649;28;20402;-78
2022/04/24 05:52:23;;;;;;;2.20;0.90;;;7.80;99.90;;;;;;5041621;28;20571;-78
2022/04/24 05:54:49;;;;;;;1.30;1.20;;;7.70;99.90;;;;;;5036038;28;20186;-80
2022/04/24 05:57:15;;;;;;;0.83;0.83;;;7.80;99.90;;;;;;5036731;28;20170;-79
2022/04/24 05:59:40;;;;;;;1.00;0.90;;;7.80;99.90;;;;;;5035766;28;20185;-78
2022/04/24 06:02:06;;;;;;;0.80;0.80;;;7.80;99.90;;;;;;5035363;28;20243;-78
2022/04/24 06:04:32;;;;;;;0.70;0.70;;;7.90;99.90;;;;;;5034138;28;20182;-78
2022/04/24 06:06:58;;;;;;;0.87;0.70;;;7.90;99.90;;;;;;5034602;28;20565;-78
2022/04/24 06:09:23;;;;;;;0.87;0.63;;;7.80;99.90;;;;;;5034601;28;20181;-79
2022/04/24 06:11:49;;;;;;;1.13;1.03;;;7.90;99.90;;;;;;5034131;28;20196;-78
2022/04/24 06:14:14;;;;;;;4.50;0.80;;;7.90;99.90;;;;;;5035506;28;20167;-78
2022/04/24 06:16:40;;;;;;;6.73;0.73;;;7.90;99.90;;;;;;5035893;28;20617;-78
2022/04/24 06:19:06;;;;;;;1.23;0.70;;;8.00;99.90;;;;;;5034924;28;20649;-78
2022/04/24 06:21:31;;;;;;;0.60;0.60;;;8.10;99.90;;;;;;5036265;28;20170;-79
2022/04/24 06:23:57;;;;;;;0.60;0.60;;;8.10;99.90;;;;;;5036102;28;20179;-79
2022/04/24 06:26:22;;;;;;;0.50;0.50;;;8.10;99.90;;;;;;5036229;28;20559;-79
2022/04/24 06:28:48;;;;;;;0.60;0.60;;;8.10;99.90;;;;;;5035746;28;20182;-78
2022/04/24 06:31:14;;;;;;;0.50;0.50;;;8.20;99.90;;;;;;5036480;28;20211;-78
2022/04/24 06:33:39;;;;;;;0.70;0.70;;;8.30;99.90;;;;;;5034945;28;20193;-80
2022/04/24 06:36:05;;;;;;;1.17;0.90;;;8.30;99.90;;;;;;5035819;28;20186;-78
2022/04/24 06:38:31;;;;;;;4.60;2.13;;;8.30;99.90;;;;;;5034875;28;20590;-80
2022/04/24 06:40:56;;;;;;;0.57;0.57;;;8.40;99.90;;;;;;5036634;28;20221;-80
2022/04/24 06:43:22;;;;;;;1.33;0.63;;;8.50;99.90;;;;;;5036696;28;20200;-80
2022/04/24 06:45:47;;;;;;;0.60;0.60;;;8.60;99.90;;;;;;5034716;28;20237;-80
2022/04/24 06:48:15;;;;;;;0.60;0.50;;;8.70;99.90;;;;;;5036248;28;20210;-78
2022/04/24 06:50:43;;;;;;;0.50;0.50;;;8.70;99.90;;;;;;5035622;28;20176;-79
2022/04/24 06:53:13;;;;;;;0.57;0.50;;;8.80;99.90;;;;;;5034343;28;20206;-79
2022/04/24 06:55:41;;;;;;;0.50;0.40;;;8.80;99.90;;;;;;5035053;28;20192;-79
2022/04/24 06:58:08;;;;;;;0.47;0.47;;;9.00;99.90;;;;;;5035958;28;20191;-81
2022/04/24 07:00:38;;;;;;;0.50;0.50;;;9.10;99.90;;;;;;5034295;28;20189;-79
2022/04/24 07:03:10;;;;;;;0.40;0.40;;;9.30;99.90;;;;;;5035198;28;20257;-80
2022/04/24 07:05:36;;;;;;;0.63;0.40;;;9.30;99.90;;;;;;5037173;28;20270;-81
2022/04/24 07:08:02;;;;;;;0.63;0.63;;;9.40;99.90;;;;;;5035307;28;20238;-79
2022/04/24 07:10:28;;;;;;;0.47;0.47;;;9.50;99.90;;;;;;5036106;28;20508;-79
2022/04/24 07:12:54;;;;;;;0.60;0.60;;;9.50;99.90;;;;;;5035271;28;20195;-79
2022/04/24 07:15:22;;;;;;;0.47;0.47;;;9.50;99.90;;;;;;5034132;28;20547;-79
2022/04/24 07:17:50;;;;;;;0.30;0.30;;;9.40;99.90;;;;;;5035117;28;20186;-79
2022/04/24 07:20:18;;;;;;;0.60;0.60;;;9.50;99.90;;;;;;5035928;28;20182;-79
2022/04/24 07:22:45;;;;;;;0.50;0.50;;;9.60;99.90;;;;;;5041748;28;20280;-78
2022/04/24 07:25:12;;;;;;;0.80;0.60;;;9.60;99.90;;;;;;5045128;28;20210;-80
2022/04/24 07:27:39;;;;;;;0.60;0.60;;;9.60;99.90;;;;;;5040446;28;20633;-80
2022/04/24 07:30:05;;;;;;;0.60;0.40;;;9.60;99.90;;;;;;5038591;28;20180;-79
2022/04/24 07:32:48;;;;;;;0.77;0.40;;;9.70;99.90;;;;;;5040061;28;20217;-80
2022/04/24 07:35:16;;;;;;;0.67;0.67;;;9.70;99.90;;;;;;5040312;28;20190;-80
2022/04/24 07:37:42;;;;;;;0.50;0.50;;;9.70;99.90;;;;;;5038797;28;20648;-80
2022/04/24 07:40:11;;;;;;;0.70;0.60;;;10.00;99.90;;;;;;5040399;28;20182;-80
2022/04/24 07:42:50;;;;;;;0.70;0.70;;;10.40;99.90;;;;;;5040172;28;20611;-80
2022/04/24 07:45:29;;;;;;;1.10;0.70;;;10.70;99.90;;;;;;5044073;28;20210;-79
2022/04/24 07:47:56;;;;;;;1.33;1.20;;;11.10;99.90;;;;;;5045336;28;20257;-80
2022/04/24 07:50:24;;;;;;;0.73;0.73;;;11.50;99.90;;;;;;5038466;28;20635;-80
2022/04/24 07:52:50;;;;;;;0.90;0.50;;;11.60;99.90;;;;;;5038009;28;20206;-79
2022/04/24 07:55:18;;;;;;;0.60;0.60;;;11.50;99.90;;;;;;5036414;28;20186;-78
2022/04/24 07:57:49;;;;;;;0.50;0.50;;;11.60;99.90;;;;;;5037588;28;20189;-80
2022/04/24 08:00:21;;;;;;;0.40;0.40;;;12.30;99.90;;;;;;5037650;28;20557;-80
2022/04/24 08:03:07;;;;;;;0.97;0.70;;;13.10;99.90;;;;;;5020670;28;20206;-79
2022/04/24 08:05:36;;;;;;;0.70;0.50;;;13.50;99.90;;;;;;5036274;28;20198;-78
2022/04/24 08:08:04;;;;;;;0.40;0.40;;;13.80;99.90;;;;;;5039419;28;20705;-82
2022/04/24 08:10:33;;;;;;;1.03;0.60;;;14.00;99.90;;;;;;5040374;28;20185;-79
2022/04/24 08:12:59;;;;;;;0.50;0.50;;;13.50;99.90;;;;;;5039322;28;20778;-80
2022/04/24 08:15:25;;;;;;;0.40;0.40;;;12.70;99.90;;;;;;5039790;28;20244;-80
2022/04/24 08:17:50;;;;;;;0.67;0.40;;;12.00;99.90;;;;;;5041235;28;20624;-80
2022/04/24 08:20:17;;;;;;;4.53;0.43;;;11.60;99.90;;;;;;5039965;28;20204;-80
2022/04/24 08:22:49;;;;;;;0.40;0.40;;;11.40;99.90;;;;;;5038791;28;20719;-80
2022/04/24 08:25:17;;;;;;;0.80;0.50;;;11.10;99.90;;;;;;5038438;28;20213;-82
2022/04/24 08:27:44;;;;;;;0.50;0.50;;;11.20;99.90;;;;;;5038504;28;20273;-80
2022/04/24 08:30:11;;;;;;;0.60;0.60;;;11.20;99.90;;;;;;5038808;28;20216;-80
2022/04/24 08:32:39;;;;;;;1.77;1.03;;;11.20;99.90;;;;;;5037987;28;20197;-80
2022/04/24 08:35:06;;;;;;;0.50;0.50;;;11.40;99.90;;;;;;5039266;28;20184;-80
2022/04/24 08:37:32;;;;;;;0.40;0.40;;;11.50;99.90;;;;;;5037367;28;20205;-80
2022/04/24 08:39:58;;;;;;;0.50;0.50;;;11.60;99.90;;;;;;5039521;28;20196;-80
2022/04/24 08:42:24;;;;;;;2.10;1.43;;;11.50;99.90;;;;;;5038881;28;20234;-81
2022/04/24 08:44:56;;;;;;;0.70;0.60;;;11.60;99.90;;;;;;5037747;28;20189;-80
2022/04/24 08:47:24;;;;;;;0.40;0.40;;;11.80;99.90;;;;;;5037424;28;20170;-80
2022/04/24 08:49:54;;;;;;;0.73;0.73;;;12.10;99.90;;;;;;5040409;28;20183;-80
2022/04/24 08:52:21;;;;;;;0.47;0.47;;;12.20;99.90;;;;;;5041800;28;20201;-81
2022/04/24 08:54:48;;;;;;;0.50;0.50;;;12.30;99.90;;;;;;5040999;28;20189;-82
2022/04/24 08:57:14;;;;;;;0.50;0.50;;;12.30;99.90;;;;;;5041922;28;20178;-80
2022/04/24 08:59:39;;;;;;;0.60;0.50;;;12.10;99.90;;;;;;5044747;28;20572;-83
2022/04/24 09:02:06;;;;;;;2.50;0.60;;;12.00;99.90;;;;;;5046734;28;20228;-81
2022/04/24 09:04:39;;;;;;;0.43;0.40;;;11.90;99.90;;;;;;5046584;28;20172;-81
2022/04/24 09:07:07;;;;;;;0.57;0.50;;;11.80;99.90;;;;;;5046137;28;20209;-81
2022/04/24 09:09:41;;;;;;;1.07;0.77;;;11.80;99.90;;;;;;5041916;28;20166;-80
2022/04/24 09:12:09;;;;;;;0.60;0.60;;;11.70;99.90;;;;;;5041107;28;20189;-81
2022/04/24 09:14:35;;;;;;;2.60;2.03;;;11.80;99.90;;;;;;5039922;28;20617;-81
2022/04/24 09:17:15;;;;;;;1.63;0.60;;;11.80;99.90;;;;;;5039962;28;20193;-81
2022/04/24 09:19:40;;;;;;;0.70;0.50;;;11.80;99.90;;;;;;5039395;28;20265;-81
2022/04/24 09:22:08;;;;;;;0.80;0.80;;;11.80;99.90;;;;;;5038166;28;20229;-80
2022/04/24 09:24:43;;;;;;;1.70;1.10;;;11.70;99.90;;;;;;5037059;28;20189;-79
2022/04/24 09:27:22;;;;;;;0.70;0.57;;;11.50;99.90;;;;;;5037042;28;20316;-79
2022/04/24 09:29:56;;;;;;;0.67;0.67;;;11.50;99.90;;;;;;5037364;28;20170;-79
2022/04/24 09:32:25;;;;;;;0.70;0.60;;;11.60;99.90;;;;;;5038490;28;20190;-79
2022/04/24 09:34:51;;;;;;;1.17;0.50;;;11.70;99.90;;;;;;5037403;28;20174;-81
2022/04/24 09:37:18;;;;;;;1.00;0.70;;;11.70;99.90;;;;;;5036862;28;20193;-78
2022/04/24 09:39:44;;;;;;;0.57;0.40;;;11.50;99.90;;;;;;5037978;28;20163;-80
2022/04/24 09:42:15;;;;;;;0.53;0.40;;;11.20;99.90;;;;;;5037899;28;20218;-78
2022/04/24 09:44:49;;;;;;;0.70;0.70;;;11.20;99.90;;;;;;5035805;28;20178;-80
2022/04/24 09:47:23;;;;;;;1.07;0.80;;;11.10;99.90;;;;;;5038246;28;20173;-79
2022/04/24 09:49:50;;;;;;;1.33;0.83;;;11.00;99.90;;;;;;5036660;28;20178;-79
2022/04/24 09:52:24;;;;;;;0.97;0.90;;;11.00;99.90;;;;;;5034593;28;20247;-78
2022/04/24 09:54:52;;;;;;;0.50;0.50;;;11.00;99.90;;;;;;5034733;28;20150;-78
2022/04/24 09:57:20;;;;;;;0.53;0.53;;;11.00;99.90;;;;;;5035283;28;20166;-80
2022/04/24 09:59:48;;;;;;;2.17;0.70;;;11.10;99.90;;;;;;5034958;28;20253;-78
2022/04/24 10:02:18;;;;;;;1.50;1.10;;;11.20;99.90;;;;;;5033366;28;20652;-78
2022/04/24 10:04:46;;;;;;;2.30;1.80;;;11.30;99.90;;;;;;5035020;28;20241;-80
2022/04/24 10:07:16;;;;;;;3.10;1.50;;;11.50;99.90;;;;;;5035272;28;20177;-80
2022/04/24 10:09:45;;;;;;;0.60;0.60;;;11.50;99.90;;;;;;5034733;28;20159;-79
2022/04/24 10:12:23;;;;;;;1.00;0.90;;;11.60;99.90;;;;;;5034657;28;20196;-79
2022/04/24 10:14:56;;;;;;;0.60;0.60;;;11.70;99.90;;;;;;5033335;28;20200;-80
2022/04/24 10:17:43;;;;;;;0.60;0.60;;;11.70;99.90;;;;;;5033251;28;20248;-80
2022/04/24 10:20:27;;;;;;;0.60;0.60;;;11.70;99.90;;;;;;5036522;28;20355;-80
2022/04/24 10:22:54;;;;;;;0.50;0.50;;;11.70;99.90;;;;;;5038568;28;20226;-80
2022/04/24 10:25:46;;;;;;;0.50;0.50;;;11.80;99.90;;;;;;5037216;28;20253;-80
2022/04/24 10:28:19;;;;;;;0.70;0.60;;;11.80;99.90;;;;;;5037396;28;20174;-80
2022/04/24 10:30:59;;;;;;;1.53;0.40;;;12.00;99.90;;;;;;5037546;28;20653;-81
2022/04/24 10:33:28;;;;;;;0.60;0.50;;;12.10;99.90;;;;;;5038914;28;20212;-80
2022/04/24 10:36:03;;;;;;;0.70;0.70;;;12.20;99.90;;;;;;5038765;28;20174;-81
2022/04/24 10:38:30;;;;;;;0.57;0.50;;;12.30;99.90;;;;;;5038431;28;20224;-80
2022/04/24 10:41:02;;;;;;;0.40;0.40;;;12.30;99.90;;;;;;5038658;28;20241;-82
2022/04/24 10:43:46;;;;;;;0.80;0.60;;;12.30;99.90;;;;;;5039060;28;20194;-81
2022/04/24 10:46:34;;;;;;;0.40;0.40;;;12.30;99.90;;;;;;5038777;28;20264;-81
2022/04/24 10:49:10;;;;;;;0.70;0.60;;;12.50;99.90;;;;;;5038805;28;20158;-80
2022/04/24 10:51:39;;;;;;;0.50;0.50;;;12.50;99.90;;;;;;5039102;28;20225;-80
2022/04/24 10:54:08;;;;;;;0.63;0.60;;;12.60;99.90;;;;;;5041241;28;20185;-81
2022/04/24 10:56:35;;;;;;;0.97;0.60;;;12.80;99.90;;;;;;5041109;28;20209;-80
2022/04/24 10:59:18;;;;;;;0.70;0.53;;;12.80;99.90;;;;;;5043247;28;20170;-79
2022/04/24 11:01:47;;;;;;;0.77;0.60;;;12.70;99.90;;;;;;5058252;28;20181;-80
2022/04/24 11:04:15;;;;;;;1.50;0.60;;;12.70;99.90;;;;;;5052546;28;20186;-80
2022/04/24 11:07:00;;;;;;;0.40;0.40;;;12.70;99.90;;;;;;5045718;28;20690;-81
2022/04/24 11:09:32;;;;;;;0.60;0.50;;;12.60;99.90;;;;;;5039822;28;20178;-81
2022/04/24 11:12:06;;;;;;;1.43;0.50;;;12.70;99.90;;;;;;5039603;28;20234;-80
2022/04/24 11:14:32;;;;;;;0.40;0.40;;;13.00;99.90;;;;;;5039958;28;20212;-81
2022/04/24 11:17:00;;;;;;;0.53;0.40;;;13.00;99.90;;;;;;5040592;28;20255;-81
2022/04/24 11:19:47;;;;;;;0.50;0.50;;;12.90;99.90;;;;;;5041870;28;20263;-80
2022/04/24 11:22:13;;;;;;;0.70;0.43;;;12.90;99.90;;;;;;5041409;28;20288;-81
2022/04/24 11:24:40;;;;;;;0.50;0.50;;;12.90;99.90;;;;;;5042519;28;20217;-81
2022/04/24 11:27:11;;;;;;;0.53;0.50;;;13.00;99.90;;;;;;5042193;28;20206;-81
2022/04/24 11:29:37;;;;;;;0.60;0.40;;;13.40;99.90;;;;;;5055124;28;20193;-80
2022/04/24 11:32:07;;;;;;;0.57;0.47;;;13.80;99.90;;;;;;5051976;28;20213;-81
2022/04/24 11:34:34;;;;;;;0.57;0.50;;;13.70;99.90;;;;;;5041544;28;20178;-81
2022/04/24 11:37:00;;;;;;;0.50;0.50;;;13.50;99.90;;;;;;5043771;28;20209;-82
2022/04/24 11:39:27;;;;;;;0.60;0.50;;;13.80;99.90;;;;;;5043405;28;20638;-81
2022/04/24 11:41:54;;;;;;;1.00;0.70;;;14.10;99.90;;;;;;5042098;28;20196;-80
2022/04/24 11:50:13;;;;;;;0.50;0.50;;;14.30;99.90;;;;;;5041687;28;20633;-81
2022/04/24 11:52:46;;;;;;;0.43;0.40;;;14.40;99.90;;;;;;5040241;28;20195;-82
2022/04/24 11:55:17;;;;;;;2.30;0.80;;;15.50;99.90;;;;;;5040455;28;20294;-82
2022/04/24 11:57:43;;;;;;;1.73;0.60;;;15.40;99.90;;;;;;5041895;28;20499;-81
2022/04/24 12:00:18;;;;;;;1.30;0.80;;;14.70;99.90;;;;;;5041103;28;20191;-81
2022/04/24 12:02:44;;;;;;;0.70;0.60;;;13.80;99.90;;;;;;5040397;28;20284;-81
2022/04/24 12:05:10;;;;;;;1.33;0.70;;;13.30;99.90;;;;;;5039852;28;20226;-81
2022/04/24 12:07:37;;;;;;;0.77;0.70;;;13.10;99.90;;;;;;5041145;28;20182;-82
2022/04/24 12:10:09;;;;;;;0.93;0.80;;;13.10;99.90;;;;;;5042743;28;20186;-82
2022/04/24 12:12:48;;;;;;;1.03;0.90;;;13.50;99.90;;;;;;5044481;28;20199;-82
2022/04/24 12:15:20;;;;;;;1.30;0.63;;;13.70;99.90;;;;;;5043695;28;20275;-82
2022/04/24 12:17:53;;;;;;;0.83;0.70;;;13.60;99.90;;;;;;5042060;28;20230;-82
2022/04/24 12:20:20;;;;;;;0.40;0.40;;;13.60;99.90;;;;;;5042086;28;20660;-82
2022/04/24 12:22:47;;;;;;;1.77;0.67;;;13.20;99.90;;;;;;5041656;28;20194;-82
2022/04/24 12:25:17;;;;;;;0.90;0.80;;;13.00;99.90;;;;;;5043996;28;20628;-81
2022/04/24 12:27:57;;;;;;;0.87;0.63;;;12.70;99.90;;;;;;5041599;28;20683;-82
2022/04/24 12:30:31;;;;;;;0.50;0.50;;;12.50;99.90;;;;;;5041466;28;20241;-81
2022/04/24 12:33:07;;;;;;;1.50;0.80;;;12.40;99.90;;;;;;5041148;28;20193;-82
2022/04/24 12:35:34;;;;;;;1.00;0.80;;;12.30;99.90;;;;;;5039971;28;20177;-81
2022/04/24 12:38:00;;;;;;;0.50;0.50;;;12.30;99.90;;;;;;5041580;28;20194;-81
2022/04/24 12:40:26;;;;;;;1.27;1.00;;;12.50;99.90;;;;;;5042419;28;20179;-82
2022/04/24 12:42:53;;;;;;;0.50;0.40;;;12.60;99.90;;;;;;5041217;28;20214;-81
2022/04/24 12:45:20;;;;;;;1.27;0.90;;;12.60;99.90;;;;;;5040928;28;20240;-81
2022/04/24 12:47:47;;;;;;;0.80;0.60;;;12.50;99.90;;;;;;5043103;28;20174;-81
2022/04/24 12:50:14;;;;;;;0.87;0.60;;;12.50;99.90;;;;;;5042596;28;20237;-81
2022/04/24 12:52:39;;;;;;;0.77;0.60;;;12.40;99.90;;;;;;5045618;28;20198;-82
2022/04/24 12:55:06;;;;;;;0.93;0.80;;;12.30;99.90;;;;;;5042552;28;20232;-81